createdAt,value
2022-09-09T00:01:37.477Z,13.02
2022-09-09T00:04:16.700Z,12.75
2022-09-09T00:07:07.992Z,12.85
2022-09-09T00:10:19.921Z,12.68
2022-09-09T00:13:09.043Z,12.43
2022-09-09T00:15:48.144Z,12.20
2022-09-09T00:18:27.169Z,11.68
2022-09-09T00:21:07.504Z,12.82
2022-09-09T00:23:40.774Z,11.25
2022-09-09T00:26:37.116Z,14.93
2022-09-09T00:29:15.544Z,11.65
2022-09-09T00:31:45.548Z,17.00
2022-09-09T00:34:20.927Z,12.77
2022-09-09T00:36:51.097Z,12.82
2022-09-09T00:39:36.046Z,13.80
2022-09-09T00:42:18.934Z,14.90
2022-09-09T00:45:03.193Z,13.55
2022-09-09T00:47:32.933Z,19.70
2022-09-09T00:50:31.139Z,13.15
2022-09-09T00:53:25.271Z,14.57
2022-09-09T00:56:03.213Z,14.05
2022-09-09T00:58:30.312Z,16.15
2022-09-09T01:01:12.489Z,14.40
2022-09-09T01:03:43.095Z,16.50
2022-09-09T01:06:17.823Z,15.45
2022-09-09T01:08:53.622Z,15.02
2022-09-09T01:11:33.322Z,15.13
2022-09-09T01:14:27.196Z,16.17
2022-09-09T01:17:01.192Z,15.23
2022-09-09T01:20:14.221Z,15.18
2022-09-09T01:23:12.094Z,17.48
2022-09-09T01:26:17.241Z,18.88
2022-09-09T01:28:47.744Z,20.30
2022-09-09T01:31:20.879Z,18.75
2022-09-09T01:33:48.467Z,20.85
2022-09-09T01:36:39.301Z,19.27
2022-09-09T01:39:06.301Z,18.02
2022-09-09T01:41:33.467Z,18.80
2022-09-09T01:44:00.543Z,18.17
2022-09-09T01:46:30.429Z,18.95
2022-09-09T01:49:00.426Z,23.73
2022-09-09T01:51:27.599Z,18.33
2022-09-09T01:53:54.463Z,17.42
2022-09-09T01:56:39.506Z,20.70
2022-09-09T01:59:15.406Z,18.02
2022-09-09T02:02:17.854Z,17.60
2022-09-09T02:04:49.282Z,15.85
2022-09-09T02:07:42.231Z,18.55
2022-09-09T02:10:23.468Z,17.83
2022-09-09T02:13:01.716Z,16.85
2022-09-09T02:15:32.688Z,22.42
2022-09-09T02:18:03.442Z,19.42
2022-09-09T02:20:35.272Z,16.77
2022-09-09T02:23:03.926Z,18.13
2022-09-09T02:25:31.203Z,15.35
2022-09-09T02:28:01.569Z,20.25
2022-09-09T02:30:32.154Z,17.92
2022-09-09T02:33:03.420Z,18.38
2022-09-09T02:35:32.367Z,16.88
2022-09-09T02:38:05.353Z,17.08
2022-09-09T02:40:32.300Z,21.88
2022-09-09T02:43:01.450Z,17.73
2022-09-09T02:45:56.482Z,21.25
2022-09-09T02:48:37.554Z,18.58
2022-09-09T02:51:11.592Z,18.75
2022-09-09T02:53:45.752Z,18.48
2022-09-09T02:56:24.689Z,18.55
2022-09-09T02:58:53.181Z,18.75
2022-09-09T03:01:20.205Z,18.08
2022-09-09T03:03:47.857Z,18.67
2022-09-09T03:06:15.754Z,16.50
2022-09-09T03:08:49.192Z,16.70
2022-09-09T03:11:18.057Z,19.08
2022-09-09T03:13:44.961Z,17.10
2022-09-09T03:16:11.995Z,20.25
2022-09-09T03:18:39.031Z,17.30
2022-09-09T03:21:06.452Z,16.52
2022-09-09T03:23:33.419Z,18.70
2022-09-09T03:26:00.355Z,15.45
2022-09-09T03:28:32.617Z,16.17
2022-09-09T03:31:04.843Z,17.70
2022-09-09T03:33:32.673Z,20.35
2022-09-09T03:35:59.628Z,18.73
2022-09-09T03:38:26.802Z,16.27
2022-09-09T03:40:58.771Z,17.15
2022-09-09T03:43:26.994Z,15.93
2022-09-09T03:45:58.182Z,18.35
2022-09-09T03:48:27.189Z,17.60
2022-09-09T03:50:55.402Z,15.20
2022-09-09T03:53:24.483Z,17.45
2022-09-09T03:55:56.302Z,16.40
2022-09-09T03:58:25.494Z,14.15
2022-09-09T04:01:10.178Z,15.75
2022-09-09T04:03:37.126Z,15.88
2022-09-09T04:06:06.018Z,13.05
2022-09-09T04:08:33.232Z,12.70
2022-09-09T04:11:02.947Z,12.90
2022-09-09T04:13:30.157Z,16.33
2022-09-09T04:15:59.865Z,14.93
2022-09-09T04:18:29.426Z,12.43
2022-09-09T04:20:59.936Z,15.93
2022-09-09T04:23:30.793Z,13.38
2022-09-09T04:28:28.121Z,13.98
2022-09-09T04:30:55.212Z,14.63
2022-09-09T04:33:22.367Z,10.35
2022-09-09T04:35:51.599Z,13.77
2022-09-09T04:38:19.515Z,12.25
2022-09-09T04:40:49.923Z,14.75
2022-09-09T04:43:17.080Z,17.55
2022-09-09T04:45:44.800Z,14.65
2022-09-09T04:48:12.530Z,15.50
2022-09-09T04:50:39.401Z,15.63
2022-09-09T04:53:06.879Z,15.48
2022-09-09T04:55:35.753Z,10.32
2022-09-09T04:58:07.668Z,16.35
2022-09-09T05:00:37.168Z,12.93
2022-09-09T05:03:06.400Z,12.35
2022-09-09T05:05:36.921Z,16.65
2022-09-09T05:08:08.526Z,12.38
2022-09-09T05:10:38.553Z,15.20
2022-09-09T05:13:05.985Z,19.97
2022-09-09T05:15:32.910Z,12.48
2022-09-09T05:18:01.467Z,17.38
2022-09-09T05:20:29.335Z,15.95
2022-09-09T05:22:57.770Z,17.65
2022-09-09T05:25:28.667Z,20.70
2022-09-09T05:30:25.975Z,16.25
2022-09-09T05:32:53.082Z,13.77
2022-09-09T05:35:20.574Z,13.82
2022-09-09T05:37:47.491Z,18.90
2022-09-09T05:40:14.760Z,18.48
2022-09-09T05:42:42.624Z,20.13
2022-09-09T05:45:10.549Z,16.80
2022-09-09T05:47:38.673Z,15.40
2022-09-09T05:50:06.335Z,15.98
2022-09-09T05:52:34.007Z,17.60
2022-09-09T05:55:01.097Z,18.42
2022-09-09T05:57:28.149Z,18.08
2022-09-09T05:59:55.092Z,17.85
2022-09-09T06:02:22.347Z,16.08
2022-09-09T06:04:49.372Z,19.67
2022-09-09T06:07:16.297Z,19.73
2022-09-09T06:09:43.205Z,19.13
2022-09-09T06:12:10.541Z,20.27
2022-09-09T06:14:38.080Z,25.25
2022-09-09T06:17:06.413Z,14.60
2022-09-09T06:19:39.045Z,14.75
2022-09-09T06:22:06.708Z,16.90
2022-09-09T06:24:34.300Z,17.17
2022-09-09T06:27:01.670Z,23.08
2022-09-09T06:29:28.623Z,17.38
2022-09-09T06:31:55.644Z,21.58
2022-09-09T06:34:22.936Z,23.27
2022-09-09T06:36:49.968Z,20.92
2022-09-09T06:39:16.977Z,18.48
2022-09-09T06:41:44.310Z,19.75
2022-09-09T06:44:13.195Z,19.73
2022-09-09T06:46:41.677Z,14.40
2022-09-09T06:49:10.421Z,18.23
2022-09-09T06:51:44.160Z,18.38
2022-09-09T06:54:13.102Z,18.17
2022-09-09T06:56:43.321Z,17.30
2022-09-09T06:59:11.398Z,19.92
2022-09-09T07:01:42.168Z,14.23
2022-09-09T07:04:10.308Z,18.90
2022-09-09T07:06:39.477Z,22.08
2022-09-09T07:09:08.428Z,14.98
2022-09-09T07:11:50.030Z,17.45
2022-09-09T07:14:17.506Z,19.05
2022-09-09T07:16:47.172Z,20.27
2022-09-09T07:19:15.860Z,17.90
2022-09-09T07:21:43.830Z,18.27
2022-09-09T07:24:13.660Z,15.95
2022-09-09T07:26:41.544Z,18.42
2022-09-09T07:29:09.941Z,17.45
2022-09-09T07:31:39.166Z,15.05
2022-09-09T07:34:06.842Z,19.92
2022-09-09T07:36:41.377Z,18.08
2022-09-09T07:39:11.266Z,18.95
2022-09-09T07:41:43.769Z,17.02
2022-09-09T07:44:17.733Z,21.10
2022-09-09T07:46:46.624Z,16.05
2022-09-09T07:49:14.028Z,17.20
2022-09-09T07:51:44.436Z,23.92
2022-09-09T07:54:17.579Z,25.20
2022-09-09T07:56:44.647Z,20.98
2022-09-09T07:59:12.067Z,23.75
2022-09-09T08:01:42.144Z,19.45
2022-09-09T08:04:16.547Z,22.20
2022-09-09T08:06:50.452Z,20.65
2022-09-09T08:09:17.826Z,26.08
2022-09-09T08:11:45.446Z,18.40
2022-09-09T08:14:13.436Z,19.52
2022-09-09T08:16:43.418Z,29.90
2022-09-09T08:19:10.909Z,25.95
2022-09-09T08:21:41.385Z,19.15
2022-09-09T08:24:11.820Z,20.75
2022-09-09T08:26:42.825Z,18.83
2022-09-09T08:29:11.950Z,23.88
2022-09-09T08:31:44.397Z,22.42
2022-09-09T08:34:14.997Z,25.33
2022-09-09T08:36:45.348Z,26.60
2022-09-09T08:39:15.443Z,24.45
2022-09-09T08:42:03.713Z,20.85
2022-09-09T08:44:48.887Z,22.80
2022-09-09T08:47:44.091Z,28.30
2022-09-09T08:50:17.268Z,29.48
2022-09-09T08:53:07.301Z,23.67
2022-09-09T08:55:51.210Z,27.03
2022-09-09T08:58:32.769Z,28.42
2022-09-09T09:01:21.059Z,34.90
2022-09-09T09:04:25.555Z,32.60
2022-09-09T09:07:07.407Z,29.00
2022-09-09T09:10:09.167Z,33.78
2022-09-09T09:12:45.936Z,28.27
2022-09-09T09:17:45.609Z,39.65
2022-09-09T09:20:16.491Z,39.95
2022-09-09T09:22:51.977Z,37.67
2022-09-09T09:25:22.336Z,35.60
2022-09-09T09:28:07.039Z,43.00
2022-09-09T09:30:42.871Z,35.70
2022-09-09T09:33:28.485Z,49.45
2022-09-09T09:35:55.404Z,37.08
2022-09-09T09:41:12.779Z,47.28
2022-09-09T09:43:43.902Z,35.80
2022-09-09T09:46:26.994Z,37.08
2022-09-09T09:49:02.780Z,57.03
2022-09-09T09:51:31.977Z,44.30
2022-09-09T09:54:17.433Z,51.25
2022-09-09T09:56:45.498Z,44.05
2022-09-09T09:59:41.311Z,38.92
2022-09-09T10:02:18.460Z,40.05
2022-09-09T10:04:49.189Z,40.70
2022-09-09T10:09:55.868Z,34.88
2022-09-09T10:12:36.575Z,47.08
2022-09-09T10:15:12.723Z,48.10
2022-09-09T10:17:42.737Z,46.55
2022-09-09T10:20:09.693Z,52.85
2022-09-09T10:22:36.665Z,35.42
2022-09-09T10:25:03.638Z,37.70
2022-09-09T10:28:08.426Z,53.28
2022-09-09T10:30:50.822Z,45.40
2022-09-09T10:33:33.852Z,43.97
2022-09-09T10:36:23.647Z,39.72
2022-09-09T10:39:04.504Z,49.50
2022-09-09T10:44:27.636Z,52.88
2022-09-09T10:47:09.632Z,49.03
2022-09-09T10:49:59.657Z,52.80
2022-09-09T10:52:50.005Z,54.73
2022-09-09T10:55:21.134Z,56.38
2022-09-09T10:57:51.643Z,51.85
2022-09-09T11:00:21.312Z,42.22
2022-09-09T11:03:01.667Z,51.50
2022-09-09T11:05:55.178Z,50.03
2022-09-09T11:08:25.846Z,58.63
2022-09-09T11:11:00.161Z,48.47
2022-09-09T11:13:45.643Z,54.58
2022-09-09T11:16:34.583Z,54.90
2022-09-09T11:19:06.101Z,53.42
2022-09-09T11:21:42.760Z,44.25
2022-09-09T11:24:19.725Z,58.28
2022-09-09T11:26:58.475Z,52.60
2022-09-09T11:29:50.768Z,55.72
2022-09-09T11:32:33.623Z,55.85
2022-09-09T11:35:38.274Z,61.83
2022-09-09T11:38:29.068Z,50.50
2022-09-09T11:41:11.324Z,54.05
2022-09-09T11:43:44.280Z,45.90
2022-09-09T11:46:13.759Z,64.13
2022-09-09T11:48:59.641Z,59.42
2022-09-09T11:51:29.822Z,47.58
2022-09-09T11:54:00.003Z,63.92
2022-09-09T11:56:46.991Z,55.63
2022-09-09T11:59:29.130Z,56.88
2022-09-09T12:02:03.042Z,59.67
2022-09-09T12:04:34.395Z,66.10
2022-09-09T12:07:10.794Z,75.30
2022-09-09T12:10:22.397Z,63.60
2022-09-09T12:12:49.375Z,60.03
2022-09-09T12:15:24.662Z,71.05
2022-09-09T12:17:54.636Z,55.35
2022-09-09T12:20:23.426Z,63.27
2022-09-09T12:23:06.294Z,57.67
2022-09-09T12:25:48.280Z,58.95
2022-09-09T12:28:23.841Z,51.55
2022-09-09T12:30:58.941Z,55.03
2022-09-09T12:33:26.145Z,58.88
2022-09-09T12:35:59.122Z,61.42
2022-09-09T12:38:35.505Z,69.65
2022-09-09T12:41:02.424Z,62.13
2022-09-09T12:43:29.670Z,63.00
2022-09-09T12:46:04.336Z,54.78
2022-09-09T12:48:39.047Z,61.92
2022-09-09T12:51:18.287Z,59.38
2022-09-09T12:53:47.269Z,59.15
2022-09-09T12:56:22.711Z,64.07
2022-09-09T12:58:55.381Z,62.05
2022-09-09T13:01:31.062Z,66.13
2022-09-09T13:04:01.635Z,58.35
2022-09-09T13:06:33.117Z,55.10
2022-09-09T13:09:02.467Z,51.20
2022-09-09T13:11:37.180Z,57.97
2022-09-09T13:14:04.524Z,61.78
2022-09-09T13:16:36.596Z,62.35
2022-09-09T13:19:17.248Z,58.72
2022-09-09T13:21:44.458Z,60.10
2022-09-09T13:24:28.675Z,75.90
2022-09-09T13:27:03.191Z,69.00
2022-09-09T13:29:31.637Z,62.40
2022-09-09T13:32:18.255Z,58.20
2022-09-09T13:34:54.282Z,68.15
2022-09-09T13:37:29.289Z,65.35
2022-09-09T13:39:56.550Z,66.03
2022-09-09T13:42:30.507Z,65.20
2022-09-09T13:44:59.622Z,69.82
2022-09-09T13:47:33.806Z,68.32
2022-09-09T13:50:23.681Z,70.85
2022-09-09T13:52:55.411Z,78.45
2022-09-09T13:55:24.420Z,68.28
2022-09-09T13:58:03.394Z,61.28
2022-09-09T14:00:32.542Z,58.20
2022-09-09T14:02:59.537Z,62.05
2022-09-09T14:05:26.682Z,67.18
2022-09-09T14:07:53.653Z,57.40
2022-09-09T14:10:20.867Z,61.40
2022-09-09T14:12:48.079Z,61.15
2022-09-09T14:15:15.710Z,52.42
2022-09-09T14:17:43.108Z,56.83
2022-09-09T14:20:13.113Z,58.20
2022-09-09T14:22:42.854Z,56.03
2022-09-09T14:25:10.034Z,52.53
2022-09-09T14:27:37.011Z,47.50
2022-09-09T14:30:04.419Z,43.03
2022-09-09T14:32:31.370Z,51.92
2022-09-09T14:34:58.303Z,51.40
2022-09-09T14:37:25.483Z,45.55
2022-09-09T14:39:52.694Z,50.13
2022-09-09T14:42:20.151Z,53.67
2022-09-09T14:44:47.095Z,57.50
2022-09-09T14:47:14.004Z,45.15
2022-09-09T14:49:42.717Z,44.65
2022-09-09T14:52:15.128Z,46.35
2022-09-09T14:54:42.058Z,47.97
2022-09-09T14:57:09.068Z,47.40
2022-09-09T14:59:36.090Z,47.67
2022-09-09T15:02:05.648Z,44.95
2022-09-09T15:04:32.878Z,47.85
2022-09-09T15:07:00.322Z,47.97
2022-09-09T15:09:27.223Z,43.28
2022-09-09T15:11:54.278Z,52.40
2022-09-09T15:14:22.419Z,47.42
2022-09-09T15:16:52.279Z,51.63
2022-09-09T15:19:19.234Z,51.90
2022-09-09T15:21:46.259Z,47.90
2022-09-09T15:24:14.907Z,54.17
2022-09-09T15:26:42.073Z,53.97
2022-09-09T15:29:09.752Z,54.33
2022-09-09T15:31:37.485Z,42.97
2022-09-09T15:34:06.889Z,48.13
2022-09-09T15:36:39.513Z,49.97
2022-09-09T15:39:11.027Z,47.35
2022-09-09T15:41:38.046Z,52.03
2022-09-09T15:44:04.986Z,47.92
2022-09-09T15:46:38.545Z,47.65
2022-09-09T15:49:12.298Z,45.55
2022-09-09T15:51:43.173Z,47.28
2022-09-09T15:54:19.843Z,48.63
2022-09-09T15:56:50.030Z,48.95
2022-09-09T15:59:17.499Z,47.65
2022-09-09T16:01:45.243Z,45.25
2022-09-09T16:04:13.216Z,46.05
2022-09-09T16:06:40.455Z,53.00
2022-09-09T16:09:08.724Z,45.50
2022-09-09T16:11:38.424Z,48.22
2022-09-09T16:14:07.802Z,42.97
2022-09-09T16:16:36.480Z,52.33
2022-09-09T16:19:08.972Z,52.63
2022-09-09T16:21:38.888Z,54.17
2022-09-09T16:24:07.747Z,51.40
2022-09-09T16:26:37.486Z,55.55
2022-09-09T16:29:04.656Z,54.85
2022-09-09T16:31:33.596Z,50.53
2022-09-09T16:34:00.830Z,46.58
2022-09-09T16:36:32.802Z,49.65
2022-09-09T16:39:02.051Z,49.53
2022-09-09T16:41:30.700Z,46.70
2022-09-09T16:44:03.714Z,52.70
2022-09-09T16:46:32.810Z,46.42
2022-09-09T16:49:01.300Z,50.92
2022-09-09T16:51:31.337Z,49.92
2022-09-09T16:54:01.069Z,54.60
2022-09-09T16:56:29.706Z,48.22
2022-09-09T16:58:58.921Z,45.40
2022-09-09T17:01:32.835Z,49.65
2022-09-09T17:04:02.625Z,48.72
2022-09-09T17:06:31.783Z,47.33
2022-09-09T17:09:01.001Z,45.85
2022-09-09T17:11:28.391Z,53.53
2022-09-09T17:13:56.594Z,53.22
2022-09-09T17:16:26.147Z,48.00
2022-09-09T17:18:53.642Z,56.55
2022-09-09T17:21:23.564Z,54.80
2022-09-09T17:23:51.045Z,52.77
2022-09-09T17:26:20.229Z,46.42
2022-09-09T17:28:47.485Z,51.17
2022-09-09T17:31:18.150Z,53.38
2022-09-09T17:38:45.529Z,49.10
2022-09-09T17:41:30.565Z,41.78
2022-09-09T17:43:58.516Z,50.75
2022-09-09T17:46:31.074Z,49.25
2022-09-09T17:49:01.054Z,46.03
2022-09-09T17:51:30.914Z,38.43
2022-09-09T17:54:01.129Z,45.20
2022-09-09T17:56:32.488Z,38.15
2022-09-09T17:59:00.803Z,35.75
2022-09-09T18:01:34.040Z,41.50
2022-09-09T18:04:04.387Z,44.60
2022-09-09T18:06:38.405Z,40.00
2022-09-09T18:09:13.891Z,47.55
2022-09-09T18:11:45.543Z,45.47
2022-09-09T18:14:16.699Z,43.53
2022-09-09T18:16:44.072Z,54.47
2022-09-09T18:19:14.088Z,48.58
2022-09-09T18:21:43.329Z,52.53
2022-09-09T18:24:12.065Z,52.55
2022-09-09T18:26:40.722Z,48.33
2022-09-09T18:29:11.376Z,50.78
2022-09-09T18:31:39.046Z,44.00
2022-09-09T18:34:08.711Z,44.92
2022-09-09T18:36:39.870Z,54.28
2022-09-09T18:39:08.442Z,52.08
2022-09-09T18:41:40.856Z,42.03
2022-09-09T18:44:13.979Z,55.72
2022-09-09T18:46:41.523Z,39.17
2022-09-09T18:49:12.978Z,44.53
2022-09-09T18:51:41.536Z,46.10
2022-09-09T18:54:16.665Z,54.58
2022-09-09T18:56:44.266Z,54.22
2022-09-09T18:59:14.556Z,51.53
2022-09-09T19:01:42.585Z,52.97
2022-09-09T19:04:09.865Z,52.00
2022-09-09T19:06:45.386Z,50.85
2022-09-09T19:09:18.198Z,43.13
2022-09-09T19:11:46.326Z,42.45
2022-09-09T19:14:16.040Z,40.22
2022-09-09T19:16:43.259Z,37.83
2022-09-09T19:19:18.031Z,33.78
2022-09-09T19:21:45.302Z,36.83
2022-09-09T19:24:24.650Z,35.17
2022-09-09T19:26:54.400Z,32.63
2022-09-09T19:29:26.710Z,35.15
2022-09-09T19:32:36.510Z,32.80
2022-09-09T19:34:44.404Z,37.33
2022-09-09T19:37:16.347Z,38.97
2022-09-09T19:39:46.336Z,32.88
2022-09-09T19:42:13.583Z,38.92
2022-09-09T19:44:40.611Z,36.88
2022-09-09T19:47:07.561Z,40.30
2022-09-09T19:49:35.553Z,39.08
2022-09-09T19:52:02.845Z,34.03
2022-09-09T19:54:29.765Z,43.47
2022-09-09T19:56:56.950Z,44.97
2022-09-09T19:59:24.171Z,46.35
2022-09-09T20:01:51.653Z,46.40
2022-09-09T20:04:18.994Z,46.63
2022-09-09T20:06:46.215Z,42.63
2022-09-09T20:09:15.966Z,45.45
2022-09-09T20:11:44.693Z,44.47
2022-09-09T20:14:12.577Z,42.75
2022-09-09T20:16:39.913Z,43.95
2022-09-09T20:19:08.633Z,52.33
2022-09-09T20:21:45.258Z,35.25
2022-09-09T20:24:16.887Z,37.75
2022-09-09T20:26:44.753Z,45.88
2022-09-09T20:29:16.244Z,39.30
2022-09-09T20:31:44.652Z,36.35
2022-09-09T20:34:14.369Z,33.92
2022-09-09T20:36:42.114Z,44.38
2022-09-09T20:39:10.945Z,39.80
2022-09-09T20:41:40.082Z,36.75
2022-09-09T20:44:11.596Z,37.95
2022-09-09T20:46:43.372Z,41.97
2022-09-09T20:49:11.727Z,42.00
2022-09-09T20:51:39.019Z,32.78
2022-09-09T20:54:08.999Z,38.13
2022-09-09T20:56:38.969Z,33.23
2022-09-09T20:59:14.500Z,28.50
2022-09-09T21:01:42.449Z,30.45
2022-09-09T21:04:10.099Z,27.80
2022-09-09T21:06:37.374Z,32.83
2022-09-09T21:09:05.157Z,30.50
2022-09-09T21:11:33.089Z,29.23
2022-09-09T21:14:00.032Z,27.90
2022-09-09T21:16:28.344Z,23.10
2022-09-09T21:18:55.499Z,25.35
2022-09-09T21:21:22.921Z,23.90
2022-09-09T21:23:50.859Z,28.77
2022-09-09T21:26:19.838Z,31.35
2022-09-09T21:28:46.937Z,28.63
2022-09-09T21:31:19.014Z,27.10
2022-09-09T21:33:46.558Z,30.23
2022-09-09T21:36:14.663Z,30.77
2022-09-09T21:38:42.304Z,30.80
2022-09-09T21:41:14.731Z,30.98
2022-09-09T21:43:43.479Z,27.77
2022-09-09T21:46:17.966Z,27.48
2022-09-09T21:48:45.282Z,35.95
2022-09-09T21:51:15.208Z,29.75
2022-09-09T21:53:43.666Z,28.90
2022-09-09T21:56:13.570Z,29.50
2022-09-09T21:58:43.572Z,32.50
2022-09-09T22:01:11.804Z,25.50
2022-09-09T22:03:39.409Z,26.90
2022-09-09T22:06:07.675Z,24.77
2022-09-09T22:08:34.820Z,21.80
2022-09-09T22:11:14.344Z,26.58
2022-09-09T22:13:42.891Z,24.92
2022-09-09T22:16:12.713Z,21.25
2022-09-09T22:18:40.384Z,23.57
2022-09-09T22:21:13.395Z,26.83
2022-09-09T22:23:40.328Z,23.65
2022-09-09T22:26:07.902Z,24.40
2022-09-09T22:28:36.213Z,22.27
2022-09-09T22:31:03.237Z,25.70
2022-09-09T22:33:30.441Z,19.02
2022-09-09T22:35:57.427Z,15.48
2022-09-09T22:38:24.476Z,17.95
2022-09-09T22:40:52.189Z,16.40
2022-09-09T22:43:22.119Z,17.92
2022-09-09T22:45:50.515Z,14.77
2022-09-09T22:48:17.690Z,16.65
2022-09-09T22:50:45.350Z,20.60
2022-09-09T22:53:17.077Z,19.58
2022-09-09T22:55:54.809Z,21.38
2022-09-09T22:58:22.741Z,25.23
2022-09-09T23:00:49.827Z,24.10
2022-09-09T23:03:17.054Z,24.42
2022-09-09T23:05:43.935Z,19.92
2022-09-09T23:08:11.248Z,22.88
2022-09-09T23:10:43.516Z,20.08
2022-09-09T23:13:10.432Z,21.05
2022-09-09T23:15:37.839Z,19.20
2022-09-09T23:18:05.214Z,19.88
2022-09-09T23:20:32.404Z,20.33
2022-09-09T23:22:59.248Z,20.63
2022-09-09T23:25:27.712Z,21.63
2022-09-09T23:27:54.689Z,23.20
2022-09-09T23:30:21.952Z,17.23
2022-09-09T23:32:52.073Z,16.95
2022-09-09T23:35:19.321Z,14.65
2022-09-09T23:37:46.290Z,15.13
2022-09-09T23:40:13.230Z,15.13
2022-09-09T23:42:40.165Z,14.90
2022-09-09T23:45:07.970Z,16.10
2022-09-09T23:47:34.903Z,15.30
2022-09-09T23:50:02.815Z,16.27
2022-09-09T23:52:29.802Z,15.18
2022-09-09T23:54:56.888Z,14.88
2022-09-09T23:57:24.185Z,13.65
2022-09-09T23:59:51.136Z,14.55
